Time;durP1;ratioP1;P1;durP2;ratioP2;P2;SDS_P1;SDS_P2;PMS_P1;PMS_P2;Temp;Humidity;BMP_temperature;BMP_pressure;BME280_temperature;BME280_humidity;BME280_pressure;Samples;Min_cycle;Max_cycle;Signal;HPM_P1;HPM_P2
2022/03/29 00:01:30;;;;;;;;;37.50;31.50;;;;;16.89;34.50;101049.84;6281809;22;45350;-79
2022/03/29 00:03:55;;;;;;;;;44.00;34.25;;;;;16.89;34.22;101049.84;6309309;22;46202;-80
2022/03/29 00:06:21;;;;;;;;;34.75;32.50;;;;;16.88;34.56;101048.06;6309854;22;45266;-79
2022/03/29 00:08:46;;;;;;;;;37.00;31.00;;;;;16.90;34.62;101040.94;6281396;22;45289;-79
2022/03/29 00:11:13;;;;;;;;;37.25;31.00;;;;;16.88;34.56;101026.78;6307562;22;45534;-79
2022/03/29 00:13:40;;;;;;;;;38.00;33.50;;;;;16.90;34.60;101026.75;6307101;22;45578;-79
2022/03/29 00:16:08;;;;;;;;;33.50;28.75;;;;;16.89;34.69;101025.00;6279121;22;45337;-79
2022/03/29 00:18:36;;;;;;;;;37.25;31.25;;;;;16.89;34.50;101019.69;6305109;22;45390;-79
2022/03/29 00:21:04;;;;;;;;;32.75;29.50;;;;;16.86;34.64;100998.50;6279091;22;45454;-79
2022/03/29 00:23:30;;;;;;;;;33.50;29.25;;;;;16.94;34.72;101015.13;6307447;22;45531;-79
2022/03/29 00:25:55;;;;;;;;;36.50;32.00;;;;;16.88;34.87;101000.19;6280157;22;45653;-79
2022/03/29 00:28:21;;;;;;;;;29.00;28.00;;;;;16.86;34.90;101012.66;6309465;22;45080;-79
2022/03/29 00:30:46;;;;;;;;;38.00;30.75;;;;;16.86;34.71;101007.34;6309858;22;45148;-80
2022/03/29 00:33:12;;;;;;;;;33.75;31.50;;;;;16.87;34.96;101009.09;6309116;22;46033;-79
2022/03/29 00:35:38;;;;;;;;;33.00;29.75;;;;;16.88;34.79;101009.97;6306759;22;45242;-79
2022/03/29 00:38:04;;;;;;;;;33.00;30.75;;;;;16.82;34.99;100992.38;6281608;22;45239;-79
2022/03/29 00:40:30;;;;;;;;;26.75;23.75;;;;;16.84;35.24;101000.31;6309390;22;45374;-79
2022/03/29 00:42:56;;;;;;;;;34.75;28.75;;;;;16.77;35.38;100991.63;6281733;22;47236;-80
2022/03/29 00:45:21;;;;;;;;;36.00;30.25;;;;;16.78;35.50;100988.03;6310054;22;45314;-80
2022/03/29 00:47:47;;;;;;;;;37.00;30.75;;;;;16.70;35.55;100972.25;6309635;22;45429;-79
2022/03/29 00:50:12;;;;;;;;;35.00;30.50;;;;;16.73;35.61;100979.28;6281186;22;45301;-79
2022/03/29 00:52:39;;;;;;;;;36.00;31.00;;;;;16.69;35.66;100972.31;6309560;22;45439;-79
2022/03/29 00:55:06;;;;;;;;;34.75;28.25;;;;;16.60;35.63;100957.47;6280565;22;45425;-79
2022/03/29 00:57:34;;;;;;;;;30.00;27.75;;;;;16.60;35.66;100954.81;6280961;22;45205;-80
2022/03/29 01:00:00;;;;;;;;;37.50;30.75;;;;;16.63;35.82;100956.53;6280774;22;45498;-78
2022/03/29 01:02:25;;;;;;;;;30.00;29.25;;;;;16.60;35.85;100952.16;6281070;22;46871;-79
2022/03/29 01:04:51;;;;;;;;;41.00;35.00;;;;;16.62;35.98;100955.63;6280883;22;45434;-79
2022/03/29 01:07:17;;;;;;;;;36.50;31.25;;;;;16.56;36.10;100944.28;6281454;22;45221;-79
2022/03/29 01:09:42;;;;;;;;;30.00;27.50;;;;;16.59;36.20;100946.88;6280893;22;45328;-78
2022/03/29 01:12:08;;;;;;;;;43.00;34.00;;;;;16.60;36.01;100954.81;6280975;22;46902;-79
2022/03/29 01:14:34;;;;;;;;;36.00;32.00;;;;;16.52;36.30;100946.16;6308956;22;45377;-79
2022/03/29 01:19:46;;;;;;;;;35.75;30.00;;;;;16.48;36.35;100939.16;6308592;22;45101;-79
2022/03/29 01:22:12;;;;;;;;;39.50;32.25;;;;;16.48;36.37;100939.16;6280960;22;46557;-79
2022/03/29 01:24:43;;;;;;;;;39.00;34.00;;;;;16.48;36.27;100945.34;6281250;22;45239;-79
2022/03/29 01:27:09;;;;;;;;;32.25;30.00;;;;;16.48;36.27;100945.34;6280860;22;45361;-79
2022/03/29 01:29:37;;;;;;;;;31.25;29.25;;;;;16.49;36.46;100933.81;6309852;22;45182;-78
2022/03/29 01:32:05;;;;;;;;;34.75;30.50;;;;;16.45;36.35;100932.13;6310283;22;45341;-79
2022/03/29 01:34:33;;;;;;;;;37.75;31.25;;;;;16.41;36.10;100922.50;6309492;22;45364;-79
2022/03/29 01:36:58;;;;;;;;;36.75;33.00;;;;;16.48;36.33;100940.03;6282267;22;45335;-79
2022/03/29 01:39:24;;;;;;;;;34.75;29.00;;;;;16.45;36.49;100925.94;6309780;22;45526;-78
2022/03/29 01:41:49;;;;;;;;;29.25;27.75;;;;;16.46;36.25;100925.03;6281243;22;47298;-79
2022/03/29 01:44:15;;;;;;;;;30.50;30.50;;;;;16.40;35.95;100912.78;6310670;22;45233;-79
2022/03/29 01:46:44;;;;;;;;;35.50;30.75;;;;;16.40;36.15;100903.94;6283011;22;45180;-79
2022/03/29 01:49:10;;;;;;;;;38.25;29.75;;;;;16.38;36.04;100909.28;6309679;22;45476;-79
2022/03/29 01:51:36;;;;;;;;;35.75;32.00;;;;;16.37;36.12;100910.19;6310669;22;45397;-78
2022/03/29 01:54:02;;;;;;;;;32.50;27.50;;;;;16.39;36.01;100907.50;6310397;22;45262;-80
2022/03/29 01:56:29;;;;;;;;;34.50;29.00;;;;;16.35;35.98;100896.06;6282734;22;45319;-79
2022/03/29 01:58:56;;;;;;;;;36.25;26.00;;;;;16.36;36.23;100896.94;6308659;22;45175;-79
2022/03/29 02:01:22;;;;;;;;;32.50;28.75;;;;;16.39;36.03;100894.22;6311026;22;45195;-79
2022/03/29 02:03:47;;;;;;;;;33.25;32.00;;;;;16.31;35.80;100875.81;6310381;22;45117;-79
2022/03/29 02:06:13;;;;;;;;;34.25;29.00;;;;;16.35;35.75;100876.59;6282650;22;45129;-79
2022/03/29 02:08:39;;;;;;;;;32.75;29.75;;;;;16.31;35.95;100871.38;6282854;22;45434;-78
2022/03/29 02:11:06;;;;;;;;;33.00;28.00;;;;;16.29;35.58;100864.34;6310862;22;45481;-79
2022/03/29 02:13:32;;;;;;;;;35.25;31.25;;;;;16.27;35.22;100866.16;6282578;22;45338;-79
2022/03/29 02:15:58;;;;;;;;;37.25;31.25;;;;;16.25;35.43;100870.63;6282594;22;45365;-78
2022/03/29 02:18:23;;;;;;;;;29.75;27.00;;;;;16.28;35.31;100868.78;6282575;22;45824;-79
2022/03/29 02:20:48;;;;;;;;;31.00;27.50;;;;;16.28;35.22;100863.47;6282955;22;46595;-78
2022/03/29 02:23:15;;;;;;;;;30.75;23.25;;;;;16.27;35.15;100867.03;6282764;22;45191;-79
2022/03/29 02:25:42;;;;;;;;;28.75;27.00;;;;;16.23;35.15;100861.84;6282940;22;45227;-79
2022/03/29 02:28:07;;;;;;;;;29.50;25.25;;;;;16.18;34.96;100854.00;6308422;22;45193;-78
2022/03/29 02:30:35;;;;;;;;;28.25;24.50;;;;;16.20;34.88;100851.28;6281791;22;46053;-78
2022/03/29 02:33:02;;;;;;;;;31.50;26.50;;;;;16.23;35.20;100843.25;6282284;22;45423;-79
2022/03/29 02:35:27;;;;;;;;;32.50;27.75;;;;;16.22;34.82;100847.69;6282378;22;45436;-79
2022/03/29 02:37:53;;;;;;;;;27.25;26.00;;;;;16.12;34.84;100827.59;6308469;22;45349;-78
2022/03/29 02:40:18;;;;;;;;;31.00;25.00;;;;;16.15;34.81;100824.84;6281934;22;47967;-79
2022/03/29 02:42:46;;;;;;;;;29.75;26.00;;;;;16.16;34.50;100836.34;6282168;22;45207;-78
2022/03/29 02:45:16;;;;;;;;;24.00;21.00;;;;;16.15;34.25;100824.84;6310344;22;45172;-78
2022/03/29 02:47:47;;;;;;;;;31.25;27.25;;;;;16.15;34.05;100819.53;6310068;22;45387;-79
2022/03/29 02:50:13;;;;;;;;;27.50;26.50;;;;;16.15;33.91;100816.03;6309885;22;45433;-78
2022/03/29 02:52:53;;;;;;;;;22.50;19.50;;;;;16.08;34.22;100809.97;6310175;22;45239;-78
2022/03/29 02:55:21;;;;;;;;;29.75;26.00;;;;;16.11;33.87;100817.88;6307254;22;45420;-78
2022/03/29 02:57:47;;;;;;;;;28.00;24.25;;;;;16.12;33.92;100818.72;6310136;22;45159;-78
2022/03/29 03:00:16;;;;;;;;;30.50;25.50;;;;;16.09;33.85;100819.69;6281565;22;47420;-78
2022/03/29 03:02:49;;;;;;;;;26.75;24.00;;;;;16.13;33.27;100825.81;6309593;22;45385;-79
2022/03/29 03:05:15;;;;;;;;;26.00;23.25;;;;;16.13;33.57;100829.34;6281914;22;45552;-78
2022/03/29 03:07:43;;;;;;;;;32.25;26.50;;;;;16.10;33.70;100824.09;6282311;22;45518;-79
2022/03/29 03:10:11;;;;;;;;;32.00;28.75;;;;;16.04;33.78;100806.53;6309699;22;45356;-78
2022/03/29 03:12:38;;;;;;;;;23.00;22.50;;;;;16.07;33.96;100798.50;6281629;22;45328;-78
2022/03/29 03:15:05;;;;;;;;;22.00;20.25;;;;;16.17;33.67;100809.75;6308100;22;45189;-79
2022/03/29 03:17:30;;;;;;;;;29.50;24.75;;;;;16.15;34.05;100803.59;6307740;22;45350;-78
2022/03/29 03:19:56;;;;;;;;;30.50;27.00;;;;;16.12;33.84;100792.16;6281766;22;47025;-78
2022/03/29 03:22:21;;;;;;;;;32.75;26.25;;;;;16.09;33.66;100779.84;6308033;22;45318;-78
2022/03/29 03:24:47;;;;;;;;;19.00;19.00;;;;;16.07;33.69;100784.34;6310145;22;45260;-78
2022/03/29 03:27:12;;;;;;;;;27.75;22.50;;;;;16.13;33.91;100793.94;6309853;22;45487;-79
2022/03/29 03:29:38;;;;;;;;;27.25;24.75;;;;;16.07;33.86;100776.38;6281224;22;47080;-79
2022/03/29 03:32:04;;;;;;;;;29.50;24.75;;;;;16.03;33.80;100769.38;6310036;22;45302;-79
2022/03/29 03:34:29;;;;;;;;;31.50;26.25;;;;;16.12;33.85;100785.09;6309822;22;45181;-78
2022/03/29 03:36:56;;;;;;;;;32.00;27.75;;;;;16.00;34.09;100772.13;6309868;22;45180;-79
2022/03/29 03:39:22;;;;;;;;;32.75;29.25;;;;;16.07;34.09;100785.22;6310002;22;45415;-79
2022/03/29 03:41:48;;;;;;;;;24.50;23.75;;;;;16.06;34.05;100779.94;6281885;22;45261;-79
2022/03/29 03:44:14;;;;;;;;;25.00;24.75;;;;;16.07;33.81;100771.94;6310890;22;45194;-77
2022/03/29 03:46:39;;;;;;;;;23.75;22.25;;;;;16.07;33.54;100771.06;6283007;22;46384;-78
2022/03/29 03:49:05;;;;;;;;;30.25;26.75;;;;;15.99;33.81;100760.63;6282086;22;46849;-79
2022/03/29 03:51:30;;;;;;;;;25.75;23.25;;;;;15.96;33.66;100751.84;6282288;22;45746;-78
2022/03/29 03:53:56;;;;;;;;;22.00;20.50;;;;;15.99;33.68;100757.13;6307506;22;45278;-78
2022/03/29 03:56:21;;;;;;;;;28.75;24.00;;;;;15.98;33.68;100764.19;6281211;22;45518;-78
2022/03/29 03:58:50;;;;;;;;;26.50;20.25;;;;;15.95;33.68;100748.34;6309582;22;46330;-79
2022/03/29 04:01:16;;;;;;;;;29.25;26.25;;;;;15.99;34.00;100754.47;6281740;22;45303;-78
2022/03/29 04:03:41;;;;;;;;;25.50;24.00;;;;;15.97;33.92;100748.31;6281076;22;45156;-78
2022/03/29 04:06:07;;;;;;;;;29.50;26.25;;;;;15.89;33.99;100740.53;6309808;22;45156;-79
2022/03/29 04:08:32;;;;;;;;;21.75;21.75;;;;;15.98;34.06;100750.03;6281186;22;47886;-79
2022/03/29 04:10:57;;;;;;;;;27.25;22.00;;;;;15.87;33.83;100734.38;6281265;22;45189;-79
2022/03/29 04:13:23;;;;;;;;;22.75;20.00;;;;;15.86;34.20;100733.53;6307683;22;45478;-78
2022/03/29 04:15:49;;;;;;;;;24.75;20.25;;;;;15.86;34.45;100727.34;6309653;22;45582;-79
2022/03/29 04:18:15;;;;;;;;;26.00;25.00;;;;;15.83;34.25;100732.75;6309160;22;46151;-78
2022/03/29 04:20:41;;;;;;;;;25.75;19.00;;;;;15.81;34.28;100738.06;6281537;22;45329;-78
2022/03/29 04:23:10;;;;;;;;;22.75;21.00;;;;;15.85;34.65;100745.06;6281317;22;45287;-79
2022/03/29 04:25:35;;;;;;;;;21.75;18.75;;;;;15.84;34.84;100737.13;6309201;22;45173;-78
2022/03/29 04:28:01;;;;;;;;;22.00;20.00;;;;;15.80;34.51;100725.72;6281092;22;46952;-78
2022/03/29 04:30:27;;;;;;;;;24.25;20.50;;;;;15.88;34.82;100734.38;6281239;22;45624;-78
2022/03/29 04:33:19;;;;;;;;;21.75;20.50;;;;;15.87;34.73;100737.91;6309140;22;45173;-78
2022/03/29 04:35:44;;;;;;;;;26.00;21.00;;;;;15.80;34.54;100720.41;6301582;22;45359;-79
2022/03/29 04:38:12;;;;;;;;;25.00;23.50;;;;;15.82;34.75;100728.31;6309434;22;45984;-79
2022/03/29 04:40:40;;;;;;;;;23.75;23.75;;;;;15.82;34.90;100730.97;6281353;22;45187;-78
2022/03/29 04:43:06;;;;;;;;;26.25;20.25;;;;;15.82;35.10;100723.91;6307448;22;45327;-78
2022/03/29 04:45:31;;;;;;;;;25.00;22.50;;;;;15.82;35.05;100721.25;6280949;22;45682;-78
2022/03/29 04:47:57;;;;;;;;;27.00;21.75;;;;;15.75;35.40;100717.00;6307131;22;46062;-78
2022/03/29 04:50:25;;;;;;;;;28.75;25.75;;;;;15.73;35.44;100717.94;6309622;22;45343;-79
2022/03/29 04:52:51;;;;;;;;;22.75;20.50;;;;;15.72;35.64;100709.13;6281491;22;45238;-79
2022/03/29 04:55:18;;;;;;;;;22.50;22.00;;;;;15.76;36.10;100715.22;6280644;22;45480;-79
2022/03/29 04:57:47;;;;;;;;;33.25;26.75;;;;;15.68;35.88;100717.16;6308953;22;46278;-78
2022/03/29 05:00:14;;;;;;;;;29.25;26.25;;;;;15.68;36.32;100733.09;6309040;22;45357;-79
2022/03/29 05:02:45;;;;;;;;;28.75;22.75;;;;;15.69;36.12;100737.50;6308803;22;45221;-79
2022/03/29 05:05:11;;;;;;;;;26.25;24.25;;;;;15.60;36.28;100731.47;6280781;22;45424;-79
2022/03/29 05:07:40;;;;;;;;;27.75;25.50;;;;;15.67;36.29;100750.81;6280848;22;46884;-79
2022/03/29 05:10:09;;;;;;;;;24.50;23.50;;;;;15.71;36.81;100741.00;6309229;22;45169;-79
2022/03/29 05:12:40;;;;;;;;;27.00;24.00;;;;;15.69;36.59;100727.78;6280855;22;45331;-79
2022/03/29 05:15:08;;;;;;;;;29.00;25.00;;;;;15.65;36.85;100724.28;6308833;22;45156;-78
2022/03/29 05:17:35;;;;;;;;;28.00;22.00;;;;;15.64;36.93;100722.56;6280751;22;48226;-79
2022/03/29 05:20:02;;;;;;;;;29.75;24.50;;;;;15.63;36.75;100731.41;6308993;22;45448;-79
2022/03/29 05:22:33;;;;;;;;;32.75;25.75;;;;;15.62;37.05;100726.16;6306933;22;45369;-79
2022/03/29 05:24:59;;;;;;;;;33.00;26.25;;;;;15.62;36.83;100724.38;6308221;22;45258;-81
2022/03/29 05:27:24;;;;;;;;;26.25;23.75;;;;;15.65;36.96;100721.63;6282090;22;46143;-80
2022/03/29 05:29:50;;;;;;;;;27.00;25.00;;;;;15.60;37.01;100712.91;6282450;22;45376;-78
2022/03/29 05:32:18;;;;;;;;;31.25;26.00;;;;;15.62;36.75;100715.53;6311529;22;45196;-78
2022/03/29 05:34:45;;;;;;;;;26.00;23.00;;;;;15.60;36.66;100731.47;6283007;22;45195;-79
2022/03/29 05:37:11;;;;;;;;;24.50;24.25;;;;;15.55;36.95;100730.72;6308142;22;46077;-78
2022/03/29 05:39:37;;;;;;;;;27.75;25.50;;;;;15.45;37.39;100718.63;6282090;22;45160;-78
2022/03/29 05:42:03;;;;;;;;;28.00;22.50;;;;;15.38;37.53;100701.09;6310657;22;45224;-78
2022/03/29 05:44:38;;;;;;;;;24.75;22.00;;;;;15.43;37.77;100710.69;6308492;22;45557;-79
2022/03/29 05:49:49;;;;;;;;;25.25;23.50;;;;;15.40;37.36;100699.28;6310445;22;45200;-79
2022/03/29 05:52:14;;;;;;;;;24.75;22.00;;;;;15.47;37.29;100706.16;6310492;22;45236;-78
2022/03/29 05:54:41;;;;;;;;;34.50;24.50;;;;;15.46;37.28;100706.22;6282040;22;45413;-79
2022/03/29 05:57:09;;;;;;;;;23.50;21.75;;;;;15.49;37.43;100701.69;6282114;22;46223;-78
2022/03/29 05:59:37;;;;;;;;;30.25;25.25;;;;;15.43;37.28;100689.47;6281689;22;45414;-79
2022/03/29 06:02:04;;;;;;;;;28.75;25.00;;;;;15.43;37.45;100686.81;6282141;22;45179;-79
2022/03/29 06:04:33;;;;;;;;;29.00;25.75;;;;;15.53;37.51;100695.41;6281535;22;45413;-79
2022/03/29 06:06:59;;;;;;;;;27.00;23.50;;;;;15.55;37.43;100698.00;6309762;22;45292;-79
2022/03/29 06:09:25;;;;;;;;;32.25;25.00;;;;;15.54;37.16;100701.59;6308375;22;45357;-79
2022/03/29 06:11:51;;;;;;;;;32.75;28.25;;;;;15.61;37.33;100714.66;6308553;22;45224;-79
2022/03/29 06:14:17;;;;;;;;;25.00;23.00;;;;;15.56;37.04;100705.09;6310394;22;45265;-79
2022/03/29 06:16:42;;;;;;;;;33.00;26.00;;;;;15.61;36.78;100716.44;6308127;22;48002;-79
2022/03/29 06:19:11;;;;;;;;;27.25;24.25;;;;;15.65;37.14;100720.75;6281362;22;45311;-80
2022/03/29 06:21:38;;;;;;;;;35.00;29.50;;;;;15.69;37.30;100718.94;6308431;22;45300;-79
2022/03/29 06:24:08;;;;;;;;;27.00;23.25;;;;;15.72;37.06;100718.88;6310144;22;45413;-80
2022/03/29 06:26:38;;;;;;;;;36.25;28.75;;;;;15.73;37.44;100720.59;6309114;22;46240;-79
2022/03/29 06:29:09;;;;;;;;;35.50;29.50;;;;;15.70;37.57;100710.94;6309740;22;45327;-79
2022/03/29 06:31:35;;;;;;;;;30.75;24.75;;;;;15.70;37.62;100721.56;6309850;22;45390;-79
2022/03/29 06:34:01;;;;;;;;;28.75;27.50;;;;;15.69;37.64;100727.78;6281113;22;45458;-79
2022/03/29 06:36:27;;;;;;;;;30.00;24.75;;;;;15.66;37.84;100722.50;6309782;22;46077;-79
2022/03/29 06:38:53;;;;;;;;;29.25;25.25;;;;;15.71;38.08;100743.66;6309689;22;45259;-79
2022/03/29 06:41:19;;;;;;;;;23.25;22.00;;;;;15.68;38.10;100738.41;6309974;22;45346;-80
2022/03/29 06:43:45;;;;;;;;;21.00;18.00;;;;;15.70;37.75;100731.31;6281839;22;45200;-80
2022/03/29 06:46:16;;;;;;;;;28.75;24.00;;;;;15.63;37.73;100727.88;6281568;22;46360;-81
2022/03/29 06:48:42;;;;;;;;;27.75;22.25;;;;;15.62;38.11;100731.47;6281151;22;45438;-80
2022/03/29 06:51:12;;;;;;;;;29.25;26.50;;;;;15.70;38.22;100748.09;6281497;22;45382;-80
2022/03/29 06:53:41;;;;;;;;;27.75;25.75;;;;;15.63;38.33;100741.16;6307062;22;45451;-80
2022/03/29 06:56:47;;;;;;;;;29.75;26.00;;;;;15.72;38.38;100748.94;6309214;22;46515;-80
2022/03/29 07:03:59;;;;;;;;;34.25;28.50;;;;;15.81;38.36;100723.94;6032082;23;45387;-80
2022/03/29 07:06:57;;;;;;;;;34.75;27.50;;;;;15.95;38.49;100721.78;6011512;23;45380;-82
2022/03/29 07:12:09;;;;;;;;;38.25;29.75;;;;;16.07;39.03;100723.25;6161469;22;45234;-81
2022/03/29 07:15:06;;;;;;;;;;;;;;;;;;;;;
2022/03/29 07:17:20;;;;;;;;;34.75;30.00;;;;;16.11;39.35;100719.59;6300032;22;45207;-78
2022/03/29 07:29:57;;;;;;;;;;;;;;;;;;;;;
2022/03/29 08:50:09;;;;;;;;;43.00;31.25;;;;;17.73;35.77;100644.59;6087825;22;4218427;-79
2022/03/29 12:35:37;;;;;;;;;39.25;33.00;;;;;21.68;30.08;100453.50;6188941;23;45280;-85
2022/03/29 12:38:21;;;;;;;;;38.75;32.50;;;;;21.67;29.70;100449.09;6154893;23;47601;-83
2022/03/29 12:52:19;;;;;;;;;39.00;32.00;;;;;21.11;29.89;100443.97;5889530;24;47041;-83
2022/03/29 12:54:49;;;;;;;;;34.00;31.75;;;;;20.88;30.33;100437.16;5859182;24;45404;-81
2022/03/29 22:35:54;;;;;;;;;;;;;;;;;;;;;
2022/03/29 23:00:59;;;;;;;;;;;;;;;;;;;;;
2022/03/29 23:37:48;;;;;;;;;11.33;11.33;;;;;14.37;60.44;100206.25;5653229;22;15143785;-83
2022/03/29 23:40:26;;;;;;;;;25.50;22.25;;;;;14.29;60.21;100198.53;6263202;22;46740;-84
2022/03/29 23:42:52;;;;;;;;;29.75;28.50;;;;;14.34;60.32;100195.75;6266173;22;45365;-82
2022/03/29 23:45:27;;;;;;;;;30.75;29.50;;;;;14.40;60.53;100206.19;6262176;22;45370;-83
2022/03/29 23:47:53;;;;;;;;;35.50;30.50;;;;;14.43;60.04;100198.13;6263306;22;45351;-83
2022/03/29 23:50:24;;;;;;;;;37.50;32.50;;;;;14.47;60.22;100198.94;6265454;22;46971;-83
2022/03/29 23:53:00;;;;;;;;;33.75;30.00;;;;;14.42;59.86;100182.31;6261917;22;45213;-83
2022/03/29 23:55:37;;;;;;;;;37.50;31.50;;;;;14.37;59.89;100182.44;6263618;22;45446;-84
2022/03/29 23:58:24;;;;;;;;;;;;;;;;;;;;;
